createdAt,value
2023-03-12T00:02:14.636Z,99153.85
2023-03-12T00:04:46.532Z,99155.77
2023-03-12T00:07:18.455Z,99159.27
2023-03-12T00:09:50.344Z,99163.55
2023-03-12T00:12:22.254Z,99167.23
2023-03-12T00:14:54.158Z,99177.36
2023-03-12T00:17:26.186Z,99173.10
2023-03-12T00:19:58.351Z,99175.29
2023-03-12T00:22:30.363Z,99173.27
2023-03-12T00:25:02.621Z,99176.54
2023-03-12T00:27:34.658Z,99184.33
2023-03-12T00:30:08.185Z,99185.85
2023-03-12T00:32:40.919Z,99186.02
2023-03-12T00:35:13.327Z,99188.48
2023-03-12T00:37:45.278Z,99189.39
2023-03-12T00:40:17.575Z,99188.23
2023-03-12T00:42:49.534Z,99186.95
2023-03-12T00:45:21.480Z,99184.84
2023-03-12T00:47:53.355Z,99185.06
2023-03-12T00:50:25.262Z,99181.95
2023-03-12T00:52:57.237Z,99181.86
2023-03-12T00:55:29.539Z,99180.84
2023-03-12T00:58:01.415Z,99182.02
2023-03-12T01:00:33.444Z,99177.25
2023-03-12T01:03:05.451Z,99173.95
2023-03-12T01:05:38.143Z,99171.17
2023-03-12T01:08:10.572Z,99171.91
2023-03-12T01:10:45.472Z,99168.30
2023-03-12T01:13:17.589Z,99170.75
2023-03-12T01:15:49.631Z,99176.61
2023-03-12T01:18:21.503Z,99178.70
2023-03-12T01:20:53.482Z,99175.80
2023-03-12T01:23:25.371Z,99176.30
2023-03-12T01:25:57.269Z,99175.05
2023-03-12T01:28:29.615Z,99177.84
2023-03-12T01:31:06.898Z,99178.40
2023-03-12T01:33:38.977Z,99181.79
2023-03-12T01:36:20.756Z,99186.56
2023-03-12T01:38:56.290Z,99184.27
2023-03-12T01:41:32.487Z,99190.09
2023-03-12T01:44:05.939Z,99185.05
2023-03-12T01:46:39.498Z,99182.81
2023-03-12T01:49:20.395Z,99182.65
2023-03-12T01:51:56.955Z,99187.09
2023-03-12T01:54:34.872Z,99191.81
2023-03-12T01:57:09.993Z,99194.79
2023-03-12T01:59:47.301Z,99195.73
2023-03-12T02:02:25.101Z,99200.67
2023-03-12T02:05:05.321Z,99202.44
2023-03-12T02:07:38.032Z,99204.64
2023-03-12T02:10:11.585Z,99210.91
2023-03-12T02:12:43.516Z,99211.92
2023-03-12T02:15:15.673Z,99218.14
2023-03-12T02:17:47.629Z,99220.25
2023-03-12T02:20:24.788Z,99217.61
2023-03-12T02:23:06.979Z,99220.17
2023-03-12T02:25:42.231Z,99221.15
2023-03-12T02:28:17.778Z,99221.14
2023-03-12T02:30:52.795Z,99218.91
2023-03-12T02:33:25.153Z,99222.80
2023-03-12T02:35:57.770Z,99224.55
2023-03-12T02:38:39.842Z,99225.48
2023-03-12T02:41:18.466Z,99229.24
2023-03-12T02:43:54.626Z,99234.83
2023-03-12T02:46:27.005Z,99237.09
2023-03-12T02:48:59.083Z,99242.89
2023-03-12T02:51:31.329Z,99243.98
2023-03-12T02:54:03.186Z,99247.34
2023-03-12T02:56:35.487Z,99250.79
2023-03-12T02:59:08.531Z,99250.64
2023-03-12T03:01:43.893Z,99253.71
2023-03-12T03:04:16.480Z,99257.48
2023-03-12T03:06:48.921Z,99259.86
2023-03-12T03:09:22.299Z,99261.80
2023-03-12T03:11:54.945Z,99265.11
2023-03-12T03:14:27.381Z,99269.78
2023-03-12T03:17:00.058Z,99270.39
2023-03-12T03:19:32.191Z,99269.14
2023-03-12T03:22:04.100Z,99271.97
2023-03-12T03:24:36.624Z,99274.06
2023-03-12T03:27:08.669Z,99278.60
2023-03-12T03:29:41.231Z,99277.52
2023-03-12T03:32:13.325Z,99282.52
2023-03-12T03:34:45.391Z,99284.92
2023-03-12T03:37:17.385Z,99287.78
2023-03-12T03:39:49.511Z,99285.02
2023-03-12T03:42:21.480Z,99287.13
2023-03-12T03:44:53.331Z,99283.95
2023-03-12T03:47:25.470Z,99283.90
2023-03-12T03:49:57.431Z,99283.59
2023-03-12T03:52:29.363Z,99283.38
2023-03-12T03:55:01.497Z,99286.60
2023-03-12T03:57:33.867Z,99288.60
2023-03-12T04:00:09.786Z,99286.63
2023-03-12T04:02:45.732Z,99290.14
2023-03-12T04:05:19.763Z,99291.46
2023-03-12T04:07:52.975Z,99291.04
2023-03-12T04:10:27.182Z,99295.48
2023-03-12T04:12:59.515Z,99296.61
2023-03-12T04:15:31.542Z,99297.85
2023-03-12T04:18:04.120Z,99304.64
2023-03-12T04:20:36.243Z,99305.95
2023-03-12T04:23:08.372Z,99308.73
2023-03-12T04:25:40.799Z,99312.56
2023-03-12T04:28:12.815Z,99314.71
2023-03-12T04:30:45.162Z,99315.48
2023-03-12T04:33:17.183Z,99314.77
2023-03-12T04:35:53.707Z,99315.62
2023-03-12T04:38:24.737Z,99317.74
2023-03-12T04:41:02.796Z,99321.30
2023-03-12T04:43:35.514Z,99322.84
2023-03-12T04:46:08.605Z,99324.05
2023-03-12T04:48:40.539Z,99320.77
2023-03-12T04:51:12.526Z,99321.63
2023-03-12T04:53:44.767Z,99325.66
2023-03-12T04:56:17.060Z,99331.55
2023-03-12T04:58:49.654Z,99331.30
2023-03-12T05:01:26.524Z,99334.77
2023-03-12T05:03:58.481Z,99335.65
2023-03-12T05:06:30.977Z,99338.23
2023-03-12T05:09:04.021Z,99336.91
2023-03-12T05:11:39.146Z,99338.15
2023-03-12T05:14:13.738Z,99338.41
2023-03-12T05:16:45.978Z,99340.37
2023-03-12T05:19:18.082Z,99344.65
2023-03-12T05:21:49.950Z,99347.23
2023-03-12T05:24:22.829Z,99349.38
2023-03-12T05:26:54.767Z,99350.36
2023-03-12T05:29:29.718Z,99354.45
2023-03-12T05:32:02.045Z,99360.42
2023-03-12T05:34:34.833Z,99363.92
2023-03-12T05:37:07.043Z,99364.02
2023-03-12T05:39:39.497Z,99368.72
2023-03-12T05:42:11.538Z,99368.54
2023-03-12T05:44:44.070Z,99369.44
2023-03-12T05:47:17.918Z,99372.89
2023-03-12T05:49:49.973Z,99374.64
2023-03-12T05:52:22.228Z,99377.52
2023-03-12T05:54:56.291Z,99375.84
2023-03-12T05:57:28.718Z,99381.38
2023-03-12T06:00:00.704Z,99381.73
2023-03-12T06:02:32.890Z,99382.66
2023-03-12T06:05:05.154Z,99383.55
2023-03-12T06:07:37.101Z,99389.95
2023-03-12T06:10:11.934Z,99393.85
2023-03-12T06:12:43.845Z,99397.86
2023-03-12T06:15:15.977Z,99407.71
2023-03-12T06:17:48.017Z,99408.27
2023-03-12T06:20:20.423Z,99407.96
2023-03-12T06:22:52.517Z,99413.65
2023-03-12T06:25:24.965Z,99415.68
2023-03-12T06:27:56.851Z,99421.98
2023-03-12T06:30:28.785Z,99415.89
2023-03-12T06:33:00.700Z,99421.78
2023-03-12T06:35:32.800Z,99423.11
2023-03-12T06:38:05.284Z,99427.55
2023-03-12T06:40:37.447Z,99426.06
2023-03-12T06:43:12.392Z,99428.96
2023-03-12T06:45:44.282Z,99425.72
2023-03-12T06:48:16.406Z,99429.40
2023-03-12T06:50:48.645Z,99431.92
2023-03-12T06:53:21.323Z,99433.20
2023-03-12T06:55:53.903Z,99431.23
2023-03-12T06:58:25.943Z,99430.62
2023-03-12T07:00:57.948Z,99427.56
2023-03-12T07:03:30.092Z,99426.31
2023-03-12T07:06:02.160Z,99429.46
2023-03-12T07:08:34.228Z,99430.09
2023-03-12T07:11:06.716Z,99436.24
2023-03-12T07:13:39.379Z,99440.38
2023-03-12T07:16:12.308Z,99437.68
2023-03-12T07:18:44.435Z,99441.69
2023-03-12T07:21:22.767Z,99442.36
2023-03-12T07:23:55.676Z,99445.27
2023-03-12T07:26:27.963Z,99445.50
2023-03-12T07:29:00.165Z,99442.10
2023-03-12T07:31:32.177Z,99442.20
2023-03-12T07:34:06.322Z,99442.94
2023-03-12T07:36:38.870Z,99435.68
2023-03-12T07:39:11.117Z,99437.23
2023-03-12T07:41:43.329Z,99433.95
2023-03-12T07:44:16.235Z,99430.48
2023-03-12T07:46:48.388Z,99435.02
2023-03-12T07:49:21.184Z,99433.79
2023-03-12T07:51:53.391Z,99433.54
2023-03-12T07:54:30.739Z,99435.40
2023-03-12T07:57:03.199Z,99437.88
2023-03-12T07:59:35.454Z,99436.42
2023-03-12T08:02:08.033Z,99442.80
2023-03-12T08:04:40.208Z,99438.23
2023-03-12T08:07:12.668Z,99439.34
2023-03-12T08:09:45.703Z,99437.71
2023-03-12T08:12:17.709Z,99435.30
2023-03-12T08:14:49.804Z,99440.64
2023-03-12T08:17:22.318Z,99439.23
2023-03-12T08:19:54.295Z,99442.48
2023-03-12T08:22:26.547Z,99441.42
2023-03-12T08:24:58.711Z,99445.67
2023-03-12T08:27:30.734Z,99451.63
2023-03-12T08:30:04.073Z,99449.35
2023-03-12T08:32:36.545Z,99446.56
2023-03-12T08:35:10.247Z,99442.58
2023-03-12T08:37:42.680Z,99449.21
2023-03-12T08:40:15.655Z,99446.86
2023-03-12T08:42:47.866Z,99446.02
2023-03-12T08:45:20.194Z,99452.46
2023-03-12T08:47:52.372Z,99453.16
2023-03-12T08:50:26.533Z,99452.95
2023-03-12T08:52:58.656Z,99452.80
2023-03-12T08:55:30.732Z,99457.48
2023-03-12T08:58:02.718Z,99462.27
2023-03-12T09:00:34.699Z,99464.02
2023-03-12T09:03:06.979Z,99466.80
2023-03-12T09:05:39.201Z,99464.15
2023-03-12T09:08:11.991Z,99467.09
2023-03-12T09:10:50.911Z,99462.60
2023-03-12T09:13:23.123Z,99464.60
2023-03-12T09:15:59.897Z,99465.33
2023-03-12T09:18:32.439Z,99464.21
2023-03-12T09:21:05.087Z,99462.98
2023-03-12T09:23:37.218Z,99464.64
2023-03-12T09:26:12.425Z,99460.84
2023-03-12T09:28:45.139Z,99460.27
2023-03-12T09:31:17.138Z,99459.89
2023-03-12T09:33:49.367Z,99457.43
2023-03-12T09:36:21.521Z,99455.55
2023-03-12T09:38:53.754Z,99456.66
2023-03-12T09:41:29.385Z,99460.54
2023-03-12T09:44:05.557Z,99463.44
2023-03-12T09:46:43.327Z,99464.25
2023-03-12T09:49:20.648Z,99465.23
2023-03-12T09:51:56.683Z,99468.73
2023-03-12T09:54:43.022Z,99467.04
2023-03-12T09:57:21.556Z,99470.34
2023-03-12T09:59:54.380Z,99466.21
2023-03-12T10:02:53.703Z,99465.21
2023-03-12T10:05:37.965Z,99457.52
2023-03-12T10:08:25.178Z,99453.11
2023-03-12T10:11:06.796Z,99453.56
2023-03-12T10:13:52.157Z,99451.25
2023-03-12T10:16:48.075Z,99453.61
2023-03-12T10:19:42.181Z,99451.92
2023-03-12T10:22:22.674Z,99452.04
2023-03-12T10:25:02.972Z,99454.45
2023-03-12T10:27:37.729Z,99449.01
2023-03-12T10:30:19.391Z,99447.70
2023-03-12T10:32:55.160Z,99447.88
2023-03-12T10:35:30.358Z,99440.41
2023-03-12T10:38:03.837Z,99441.64
2023-03-12T10:40:39.093Z,99443.34
2023-03-12T10:43:11.212Z,99442.31
2023-03-12T10:45:50.140Z,99437.31
2023-03-12T10:48:25.041Z,99437.84
2023-03-12T10:51:08.545Z,99437.11
2023-03-12T10:53:44.890Z,99440.86
2023-03-12T10:56:19.087Z,99442.73
2023-03-12T10:58:53.012Z,99440.48
2023-03-12T11:01:27.797Z,99442.52
2023-03-12T11:04:16.655Z,99442.39
2023-03-12T11:07:07.416Z,99442.02
2023-03-12T11:09:39.959Z,99440.39
2023-03-12T11:15:22.907Z,99442.73
2023-03-12T11:18:15.160Z,99440.47
2023-03-12T11:20:47.208Z,99443.95
2023-03-12T11:23:22.707Z,99448.33
2023-03-12T11:26:04.432Z,99460.95
2023-03-12T11:28:41.836Z,99462.86
2023-03-12T11:31:22.901Z,99461.67
2023-03-12T11:33:59.953Z,99457.29
2023-03-12T11:36:46.279Z,99454.37
2023-03-12T11:39:28.560Z,99458.87
2023-03-12T11:42:14.069Z,99453.88
2023-03-12T11:44:55.925Z,99456.88
2023-03-12T11:47:41.022Z,99459.43
2023-03-12T11:50:25.723Z,99455.81
2023-03-12T11:53:18.782Z,99453.55
2023-03-12T11:56:02.011Z,99444.34
2023-03-12T11:58:45.409Z,99445.47
2023-03-12T12:01:26.731Z,99438.06
2023-03-12T12:04:22.066Z,99442.92
2023-03-12T12:07:06.167Z,99434.67
2023-03-12T12:09:49.148Z,99432.86
2023-03-12T12:12:41.407Z,99435.39
2023-03-12T12:15:29.207Z,99429.32
2023-03-12T12:18:11.402Z,99424.88
2023-03-12T12:20:50.382Z,99421.05
2023-03-12T12:23:36.182Z,99422.78
2023-03-12T12:26:13.789Z,99423.84
2023-03-12T12:29:19.641Z,99421.21
2023-03-12T12:31:56.148Z,99423.11
2023-03-12T12:34:41.943Z,99421.52
2023-03-12T12:37:37.432Z,99420.52
2023-03-12T12:40:19.604Z,99417.95
2023-03-12T12:42:54.705Z,99414.77
2023-03-12T12:45:30.484Z,99415.98
2023-03-12T12:48:07.780Z,99406.68
2023-03-12T12:50:41.282Z,99400.66
2023-03-12T12:53:22.450Z,99407.63
2023-03-12T12:56:04.425Z,99403.30
2023-03-12T12:58:52.185Z,99409.08
2023-03-12T13:01:27.184Z,99407.77
2023-03-12T13:04:05.432Z,99405.79
2023-03-12T13:07:02.650Z,99404.08
2023-03-12T13:09:43.549Z,99412.00
2023-03-12T13:12:19.975Z,99407.90
2023-03-12T13:14:53.223Z,99401.00
2023-03-12T13:17:29.284Z,99399.77
2023-03-12T13:20:17.646Z,99399.39
2023-03-12T13:23:10.468Z,99398.17
2023-03-12T13:26:01.392Z,99395.73
2023-03-12T13:28:42.508Z,99396.92
2023-03-12T13:31:40.587Z,99396.19
2023-03-12T13:34:42.908Z,99396.61
2023-03-12T13:37:36.220Z,99392.19
2023-03-12T13:41:02.412Z,99392.24
2023-03-12T13:43:57.550Z,99396.67
2023-03-12T13:46:40.643Z,99397.73
2023-03-12T13:49:19.950Z,99398.81
2023-03-12T13:52:09.385Z,99399.05
2023-03-12T13:54:45.671Z,99389.23
2023-03-12T13:57:38.548Z,99390.60
2023-03-12T14:00:20.740Z,99391.06
2023-03-12T14:03:00.174Z,99389.66
2023-03-12T14:05:50.048Z,99392.43
2023-03-12T14:08:34.928Z,99383.14
2023-03-12T14:11:23.253Z,99380.09
2023-03-12T14:14:24.217Z,99375.86
2023-03-12T14:16:59.976Z,99374.73
2023-03-12T14:19:34.774Z,99382.98
2023-03-12T14:22:12.275Z,99379.84
2023-03-12T14:24:50.987Z,99378.81
2023-03-12T14:27:28.920Z,99382.63
2023-03-12T14:30:10.188Z,99381.24
2023-03-12T14:32:43.973Z,99389.64
2023-03-12T14:35:21.937Z,99393.09
2023-03-12T14:38:00.966Z,99391.19
2023-03-12T14:40:43.993Z,99380.55
2023-03-12T14:43:28.830Z,99383.23
2023-03-12T14:46:03.637Z,99388.15
2023-03-12T14:48:37.946Z,99384.25
2023-03-12T14:51:22.213Z,99397.85
2023-03-12T14:53:56.890Z,99406.05
2023-03-12T14:56:33.046Z,99406.11
2023-03-12T14:59:22.019Z,99405.77
2023-03-12T15:01:54.058Z,99407.70
2023-03-12T15:04:27.304Z,99407.27
2023-03-12T15:07:03.414Z,99396.55
2023-03-12T15:09:38.017Z,99395.92
2023-03-12T15:12:19.614Z,99391.77
2023-03-12T15:14:55.955Z,99381.96
2023-03-12T15:17:30.730Z,99376.35
2023-03-12T15:20:09.458Z,99376.33
2023-03-12T15:22:43.521Z,99371.86
2023-03-12T15:25:30.311Z,99372.69
2023-03-12T15:28:25.338Z,99380.74
2023-03-12T15:31:11.852Z,99381.21
2023-03-12T15:33:45.521Z,99382.53
2023-03-12T15:36:31.815Z,99380.50
2023-03-12T15:39:14.024Z,99374.58
2023-03-12T15:41:47.994Z,99363.79
2023-03-12T15:44:23.924Z,99370.41
2023-03-12T15:46:58.405Z,99366.87
2023-03-12T15:49:33.968Z,99375.90
2023-03-12T15:52:26.594Z,99372.85
2023-03-12T15:55:25.530Z,99376.23
2023-03-12T15:58:00.386Z,99374.09
2023-03-12T16:00:43.000Z,99380.17
2023-03-12T16:03:19.790Z,99388.31
2023-03-12T16:05:52.481Z,99381.02
2023-03-12T16:08:29.355Z,99380.02
2023-03-12T16:11:01.401Z,99377.37
2023-03-12T16:13:34.510Z,99383.80
2023-03-12T16:16:07.387Z,99383.06
2023-03-12T16:18:39.339Z,99379.89
2023-03-12T16:21:12.133Z,99376.61
2023-03-12T16:23:44.050Z,99375.34
2023-03-12T16:26:16.725Z,99379.45
2023-03-12T16:28:49.591Z,99382.52
2023-03-12T16:31:21.561Z,99391.04
2023-03-12T16:33:53.548Z,99394.45
2023-03-12T16:36:25.465Z,99394.77
2023-03-12T16:38:57.926Z,99394.32
2023-03-12T16:41:32.491Z,99382.10
2023-03-12T16:44:06.921Z,99378.73
2023-03-12T16:46:39.318Z,99382.02
2023-03-12T16:49:16.729Z,99375.66
2023-03-12T16:51:49.015Z,99372.21
2023-03-12T16:54:20.951Z,99371.11
2023-03-12T16:56:53.112Z,99371.05
2023-03-12T16:59:31.892Z,99367.60
2023-03-12T17:02:04.618Z,99366.30
2023-03-12T17:04:36.402Z,99353.92
2023-03-12T17:07:08.637Z,99346.36
2023-03-12T17:09:41.198Z,99341.34
2023-03-12T17:12:25.454Z,99344.35
2023-03-12T17:14:59.456Z,99349.00
2023-03-12T17:17:31.809Z,99351.26
2023-03-12T17:20:10.345Z,99348.64
2023-03-12T17:22:43.057Z,99353.65
2023-03-12T17:25:23.296Z,99370.88
2023-03-12T17:27:57.419Z,99385.28
2023-03-12T17:30:31.342Z,99374.67
2023-03-12T17:33:08.704Z,99363.73
2023-03-12T17:35:41.643Z,99343.77
2023-03-12T17:38:14.524Z,99333.73
2023-03-12T17:40:47.286Z,99320.37
2023-03-12T17:43:20.090Z,99324.70
2023-03-12T17:45:52.651Z,99335.25
2023-03-12T17:48:33.514Z,99345.65
2023-03-12T17:51:11.346Z,99357.08
2023-03-12T17:53:44.297Z,99349.23
2023-03-12T17:56:18.072Z,99351.40
2023-03-12T17:58:50.660Z,99351.46
2023-03-12T18:01:23.065Z,99353.96
2023-03-12T18:03:55.791Z,99350.95
2023-03-12T18:06:28.411Z,99347.80
2023-03-12T18:09:00.595Z,99350.70
2023-03-12T18:11:33.029Z,99346.77
2023-03-12T18:14:05.400Z,99345.31
2023-03-12T18:16:37.643Z,99349.27
2023-03-12T18:19:10.011Z,99356.80
2023-03-12T18:21:42.465Z,99358.40
2023-03-12T18:24:14.935Z,99364.42
2023-03-12T18:26:49.851Z,99364.46
2023-03-12T18:29:22.212Z,99352.56
2023-03-12T18:31:54.646Z,99341.89
2023-03-12T18:34:27.200Z,99346.42
2023-03-12T18:36:59.614Z,99344.33
2023-03-12T18:39:32.264Z,99346.48
2023-03-12T18:42:04.626Z,99351.14
2023-03-12T18:44:36.891Z,99345.83
2023-03-12T18:47:09.148Z,99342.39
2023-03-12T18:49:41.648Z,99342.67
2023-03-12T18:52:13.966Z,99347.61
2023-03-12T18:54:46.151Z,99344.35
2023-03-12T18:57:18.598Z,99336.52
2023-03-12T18:59:51.067Z,99339.74
2023-03-12T19:02:23.833Z,99334.05
2023-03-12T19:04:56.827Z,99332.70
2023-03-12T19:07:29.092Z,99333.29
2023-03-12T19:10:01.970Z,99326.48
2023-03-12T19:12:45.526Z,99321.20
2023-03-12T19:15:24.108Z,99318.16
2023-03-12T19:17:57.332Z,99322.08
2023-03-12T19:20:29.603Z,99321.41
2023-03-12T19:23:01.874Z,99326.60
2023-03-12T19:25:34.243Z,99327.71
2023-03-12T19:28:06.637Z,99330.74
2023-03-12T19:30:39.042Z,99332.54
2023-03-12T19:33:11.794Z,99332.71
2023-03-12T19:35:44.677Z,99330.19
2023-03-12T19:38:17.895Z,99330.86
2023-03-12T19:40:55.301Z,99330.86
2023-03-12T19:43:28.332Z,99327.77
2023-03-12T19:46:00.818Z,99327.73
2023-03-12T19:48:33.518Z,99323.82
2023-03-12T19:51:10.332Z,99323.66
2023-03-12T19:53:43.563Z,99318.38
2023-03-12T19:56:17.549Z,99310.02
2023-03-12T19:58:51.017Z,99309.20
2023-03-12T20:01:24.975Z,99306.13
2023-03-12T20:03:57.386Z,99307.42
2023-03-12T20:06:29.729Z,99305.23
2023-03-12T20:09:02.780Z,99295.39
2023-03-12T20:11:36.558Z,99295.26
2023-03-12T20:14:09.801Z,99287.02
2023-03-12T20:16:42.460Z,99276.84
2023-03-12T20:19:14.943Z,99270.73
2023-03-12T20:21:48.421Z,99259.02
2023-03-12T20:24:20.714Z,99251.92
2023-03-12T20:26:53.231Z,99242.41
2023-03-12T20:29:25.735Z,99232.55
2023-03-12T20:31:58.048Z,99225.27
2023-03-12T20:34:30.689Z,99219.95
2023-03-12T20:37:03.033Z,99223.31
2023-03-12T20:39:35.735Z,99225.62
2023-03-12T20:42:08.536Z,99219.39
2023-03-12T20:44:40.890Z,99211.42
2023-03-12T20:47:13.134Z,99214.80
2023-03-12T20:49:45.396Z,99221.70
2023-03-12T20:52:17.687Z,99220.09
2023-03-12T20:54:49.965Z,99219.69
2023-03-12T20:57:22.176Z,99221.48
2023-03-12T20:59:54.454Z,99232.67
2023-03-12T21:02:26.922Z,99236.77
2023-03-12T21:04:59.217Z,99237.42
2023-03-12T21:07:31.460Z,99240.65
2023-03-12T21:10:04.053Z,99244.25
2023-03-12T21:12:36.327Z,99243.07
2023-03-12T21:15:12.490Z,99242.37
2023-03-12T21:17:44.666Z,99241.71
2023-03-12T21:20:18.800Z,99237.63
2023-03-12T21:22:51.062Z,99235.92
2023-03-12T21:25:24.505Z,99229.97
2023-03-12T21:27:57.847Z,99235.07
2023-03-12T21:30:30.607Z,99238.80
2023-03-12T21:33:04.005Z,99248.39
2023-03-12T21:35:36.474Z,99244.02
2023-03-12T21:38:08.709Z,99244.33
2023-03-12T21:40:41.017Z,99244.08
2023-03-12T21:43:13.061Z,99243.59
2023-03-12T21:45:47.435Z,99242.02
2023-03-12T21:48:19.302Z,99241.08
2023-03-12T21:50:51.177Z,99244.95
2023-03-12T21:53:24.162Z,99243.12
2023-03-12T21:56:01.050Z,99239.34
2023-03-12T21:58:34.149Z,99233.76
2023-03-12T22:01:09.077Z,99236.81
2023-03-12T22:03:42.988Z,99238.65
2023-03-12T22:06:16.333Z,99236.44
2023-03-12T22:08:49.268Z,99238.78
2023-03-12T22:11:21.562Z,99236.57
2023-03-12T22:13:53.497Z,99237.94
2023-03-12T22:16:25.418Z,99235.92
2023-03-12T22:18:57.937Z,99235.81
2023-03-12T22:21:30.283Z,99229.64
2023-03-12T22:24:03.513Z,99231.06
2023-03-12T22:26:35.459Z,99227.92
2023-03-12T22:29:08.739Z,99230.73
2023-03-12T22:31:40.761Z,99234.64
2023-03-12T22:34:12.721Z,99240.71
2023-03-12T22:36:44.633Z,99238.80
2023-03-12T22:39:16.901Z,99232.69
2023-03-12T22:41:51.833Z,99237.50
2023-03-12T22:44:23.710Z,99251.17
2023-03-12T22:46:55.729Z,99241.04
2023-03-12T22:49:27.762Z,99243.09
2023-03-12T22:51:59.706Z,99245.31
2023-03-12T22:54:31.627Z,99242.86
2023-03-12T22:57:03.521Z,99237.80
2023-03-12T22:59:35.484Z,99232.02
2023-03-12T23:02:07.433Z,99236.80
2023-03-12T23:04:39.666Z,99232.32
2023-03-12T23:07:15.835Z,99231.25
2023-03-12T23:09:50.223Z,99235.02
2023-03-12T23:12:22.155Z,99224.98
2023-03-12T23:14:54.270Z,99231.14
2023-03-12T23:17:26.225Z,99225.70
2023-03-12T23:19:58.142Z,99215.17
2023-03-12T23:22:30.067Z,99212.45
2023-03-12T23:25:02.038Z,99218.54
2023-03-12T23:27:34.120Z,99232.34
2023-03-12T23:30:06.952Z,99242.63
2023-03-12T23:32:38.866Z,99241.42
2023-03-12T23:35:11.570Z,99249.30
2023-03-12T23:37:43.531Z,99258.55
2023-03-12T23:40:17.095Z,99253.27
2023-03-12T23:42:49.014Z,99243.70
2023-03-12T23:45:20.939Z,99239.98
2023-03-12T23:47:52.777Z,99237.04
2023-03-12T23:50:24.755Z,99235.00
2023-03-12T23:52:56.710Z,99238.45
2023-03-12T23:55:28.632Z,99230.02
2023-03-12T23:58:00.530Z,99225.41
